createdAt,value
2018-03-28T00:01:48.936Z,65.37
2018-03-28T00:04:20.005Z,62.30
2018-03-28T00:06:50.722Z,63.83
2018-03-28T00:09:21.810Z,57.67
2018-03-28T00:11:53.783Z,59.37
2018-03-28T00:14:31.597Z,63.17
2018-03-28T00:17:02.513Z,64.00
2018-03-28T00:19:34.483Z,62.60
2018-03-28T00:22:07.030Z,65.60
2018-03-28T00:24:37.991Z,64.17
2018-03-28T00:27:08.966Z,59.90
2018-03-28T00:29:40.025Z,58.67
2018-03-28T00:32:11.162Z,58.97
2018-03-28T00:34:43.239Z,57.07
2018-03-28T00:37:14.956Z,59.80
2018-03-28T00:39:45.687Z,57.20
2018-03-28T00:42:17.667Z,58.00
2018-03-28T00:44:49.288Z,51.67
2018-03-28T00:47:20.574Z,54.03
2018-03-28T00:49:51.606Z,50.53
2018-03-28T00:52:22.277Z,50.73
2018-03-28T00:54:53.321Z,48.77
2018-03-28T00:57:23.696Z,52.67
2018-03-28T00:59:53.949Z,51.77
2018-03-28T01:02:24.854Z,46.97
2018-03-28T01:04:56.110Z,47.07
2018-03-28T01:07:27.259Z,44.17
2018-03-28T01:09:59.257Z,44.97
2018-03-28T01:12:30.549Z,44.73
2018-03-28T01:15:01.993Z,44.70
2018-03-28T01:17:33.072Z,41.50
2018-03-28T01:20:05.229Z,40.07
2018-03-28T01:22:36.497Z,41.73
2018-03-28T01:25:07.975Z,38.93
2018-03-28T01:27:39.173Z,40.60
2018-03-28T01:30:10.774Z,42.43
2018-03-28T01:32:42.049Z,41.27
2018-03-28T01:35:13.198Z,44.20
2018-03-28T01:37:44.382Z,41.20
2018-03-28T01:40:21.935Z,42.10
2018-03-28T01:42:53.842Z,37.93
2018-03-28T01:45:25.384Z,42.00
2018-03-28T01:47:56.773Z,39.17
2018-03-28T01:50:28.448Z,37.77
2018-03-28T01:52:59.910Z,41.57
2018-03-28T01:55:31.307Z,38.50
2018-03-28T01:58:02.585Z,41.83
2018-03-28T02:00:34.109Z,42.43
2018-03-28T02:03:04.962Z,43.97
2018-03-28T02:05:36.186Z,42.73
2018-03-28T02:08:07.378Z,39.50
2018-03-28T02:10:38.830Z,44.10
2018-03-28T02:13:10.053Z,44.77
2018-03-28T02:15:42.167Z,41.40
2018-03-28T02:18:14.054Z,42.10
2018-03-28T02:20:45.354Z,43.10
2018-03-28T02:23:17.208Z,44.33
2018-03-28T02:25:49.892Z,39.03
2018-03-28T02:28:21.656Z,41.50
2018-03-28T02:30:52.968Z,41.70
2018-03-28T02:33:24.531Z,36.90
2018-03-28T02:35:57.006Z,36.97
2018-03-28T02:38:28.551Z,39.17
2018-03-28T02:40:59.823Z,40.47
2018-03-28T02:43:31.277Z,35.60
2018-03-28T02:46:02.422Z,37.00
2018-03-28T02:48:33.363Z,38.13
2018-03-28T02:51:05.150Z,36.27
2018-03-28T02:53:36.648Z,33.77
2018-03-28T02:56:07.796Z,36.10
2018-03-28T02:58:39.314Z,31.37
2018-03-28T03:01:11.400Z,36.03
2018-03-28T03:03:44.084Z,35.30
2018-03-28T03:06:16.107Z,34.43
2018-03-28T03:08:47.743Z,35.27
2018-03-28T03:11:18.899Z,38.37
2018-03-28T03:13:50.427Z,35.20
2018-03-28T03:16:22.193Z,32.43
2018-03-28T03:18:54.871Z,32.43
2018-03-28T03:21:26.323Z,31.17
2018-03-28T03:23:58.147Z,29.03
2018-03-28T03:26:31.069Z,33.67
2018-03-28T03:29:02.241Z,30.17
2018-03-28T03:31:34.055Z,29.50
2018-03-28T03:34:06.004Z,33.37
2018-03-28T03:36:37.209Z,28.53
2018-03-28T03:39:08.676Z,29.57
2018-03-28T03:41:40.345Z,33.60
2018-03-28T03:44:11.747Z,32.90
2018-03-28T03:46:42.996Z,33.13
2018-03-28T03:49:13.437Z,30.53
2018-03-28T03:51:45.298Z,35.80
2018-03-28T03:54:15.775Z,33.07
2018-03-28T03:56:47.219Z,29.40
2018-03-28T03:59:18.585Z,30.27
2018-03-28T04:01:49.730Z,31.37
2018-03-28T04:04:21.573Z,32.83
2018-03-28T04:06:53.566Z,32.40
2018-03-28T04:09:26.976Z,33.30
2018-03-28T04:11:59.740Z,32.27
2018-03-28T04:14:31.726Z,32.77
2018-03-28T04:17:06.654Z,30.77
2018-03-28T04:19:38.080Z,28.97
2018-03-28T04:22:09.581Z,31.70
2018-03-28T04:24:41.052Z,30.87
2018-03-28T04:27:12.934Z,31.60
2018-03-28T04:29:44.352Z,28.57
2018-03-28T04:32:15.139Z,31.30
2018-03-28T04:34:46.555Z,31.30
2018-03-28T04:37:19.249Z,28.00
2018-03-28T04:39:50.656Z,27.73
2018-03-28T04:42:22.154Z,30.97
2018-03-28T04:44:53.678Z,31.77
2018-03-28T04:47:24.896Z,26.93
2018-03-28T04:49:55.636Z,27.20
2018-03-28T04:52:27.034Z,29.37
2018-03-28T04:54:58.247Z,27.47
2018-03-28T04:57:29.651Z,31.97
2018-03-28T05:00:00.740Z,31.23
2018-03-28T05:02:31.847Z,27.10
2018-03-28T05:05:02.769Z,28.70
2018-03-28T05:07:33.660Z,22.97
2018-03-28T05:10:04.683Z,22.47
2018-03-28T05:12:35.929Z,15.47
2018-03-28T05:15:06.981Z,12.27
2018-03-28T05:17:37.957Z,11.60
2018-03-28T05:20:08.803Z,12.73
2018-03-28T05:22:39.927Z,13.00
2018-03-28T05:25:11.123Z,11.70
2018-03-28T05:27:42.380Z,13.23
2018-03-28T05:30:13.676Z,13.60
2018-03-28T05:32:44.905Z,13.07
2018-03-28T05:35:15.964Z,10.87
2018-03-28T05:37:47.084Z,10.40
2018-03-28T05:40:17.859Z,11.17
2018-03-28T05:42:48.752Z,8.70
2018-03-28T05:45:19.564Z,12.57
2018-03-28T05:47:50.648Z,10.03
2018-03-28T05:50:21.534Z,10.63
2018-03-28T05:52:52.650Z,16.93
2018-03-28T05:55:23.755Z,10.67
2018-03-28T05:57:55.485Z,9.10
2018-03-28T06:00:26.851Z,9.83
2018-03-28T06:02:58.313Z,8.73
2018-03-28T06:05:29.489Z,10.57
2018-03-28T06:08:01.197Z,12.10
2018-03-28T06:10:32.264Z,9.23
2018-03-28T06:13:03.190Z,6.17
2018-03-28T06:15:33.978Z,9.47
2018-03-28T06:18:04.778Z,7.60
2018-03-28T06:20:35.512Z,7.70
2018-03-28T06:23:06.610Z,20.80
2018-03-28T06:25:37.432Z,9.77
2018-03-28T06:28:08.734Z,10.87
2018-03-28T06:30:39.515Z,9.20
2018-03-28T06:33:10.439Z,10.17
2018-03-28T06:35:41.019Z,8.07
2018-03-28T06:38:11.790Z,9.57
2018-03-28T06:40:42.412Z,7.63
2018-03-28T06:43:13.082Z,10.60
2018-03-28T06:45:43.823Z,8.77
2018-03-28T06:48:14.642Z,11.33
2018-03-28T06:50:45.256Z,10.60
2018-03-28T06:53:16.084Z,11.83
2018-03-28T06:55:46.568Z,9.50
2018-03-28T06:58:17.571Z,7.93
2018-03-28T07:00:48.133Z,8.27
2018-03-28T07:03:18.975Z,13.93
2018-03-28T07:05:49.553Z,9.53
2018-03-28T07:08:19.790Z,10.20
2018-03-28T07:10:50.262Z,9.57
2018-03-28T07:13:21.173Z,11.43
2018-03-28T07:15:51.719Z,10.60
2018-03-28T07:18:22.593Z,12.13
2018-03-28T07:20:53.444Z,12.10
2018-03-28T07:23:24.308Z,9.10
2018-03-28T07:25:54.945Z,6.63
2018-03-28T07:28:25.401Z,11.23
2018-03-28T07:30:55.891Z,12.47
2018-03-28T07:33:26.321Z,8.43
2018-03-28T07:35:56.906Z,8.90
2018-03-28T07:38:27.654Z,9.83
2018-03-28T07:40:58.041Z,10.83
2018-03-28T07:43:28.414Z,9.10
2018-03-28T07:45:58.752Z,13.73
2018-03-28T07:48:29.142Z,12.37
2018-03-28T07:50:59.548Z,10.77
2018-03-28T07:53:29.970Z,7.87
2018-03-28T07:56:01.280Z,9.43
2018-03-28T07:58:32.853Z,6.60
2018-03-28T08:01:04.218Z,10.10
2018-03-28T08:03:34.868Z,9.97
2018-03-28T08:06:05.331Z,9.00
2018-03-28T08:08:37.201Z,10.87
2018-03-28T08:11:07.762Z,10.00
2018-03-28T08:13:38.193Z,9.90
2018-03-28T08:16:08.895Z,10.93
2018-03-28T08:18:39.602Z,8.67
2018-03-28T08:21:10.858Z,7.87
2018-03-28T08:23:41.510Z,8.10
2018-03-28T08:26:13.004Z,7.30
2018-03-28T08:28:43.978Z,10.23
2018-03-28T08:31:14.808Z,8.93
2018-03-28T08:33:45.395Z,10.23
2018-03-28T08:36:15.980Z,7.67
2018-03-28T08:38:46.550Z,8.07
2018-03-28T08:41:17.066Z,8.93
2018-03-28T08:43:47.630Z,9.63
2018-03-28T08:46:18.247Z,7.60
2018-03-28T08:48:56.346Z,8.30
2018-03-28T08:51:31.463Z,8.87
2018-03-28T08:54:02.182Z,7.50
2018-03-28T08:56:32.500Z,9.00
2018-03-28T08:59:02.792Z,12.43
2018-03-28T09:01:33.141Z,11.37
2018-03-28T09:04:03.424Z,11.63
2018-03-28T09:06:33.708Z,10.17
2018-03-28T09:09:04.619Z,11.47
2018-03-28T09:11:35.013Z,9.97
2018-03-28T09:14:05.400Z,11.10
2018-03-28T09:16:35.676Z,10.70
2018-03-28T09:19:05.998Z,10.43
2018-03-28T09:21:36.341Z,10.50
2018-03-28T09:24:06.720Z,7.77
2018-03-28T09:26:37.068Z,11.30
2018-03-28T09:29:07.413Z,11.77
2018-03-28T09:31:37.815Z,10.87
2018-03-28T09:34:08.326Z,8.40
2018-03-28T09:36:38.812Z,14.67
2018-03-28T09:39:09.647Z,8.63
2018-03-28T09:41:40.661Z,13.03
2018-03-28T09:44:10.885Z,10.77
2018-03-28T09:46:41.155Z,14.00
2018-03-28T09:49:11.439Z,18.23
2018-03-28T09:51:41.708Z,11.57
2018-03-28T09:54:11.935Z,15.33
2018-03-28T09:56:43.688Z,14.47
2018-03-28T09:59:14.166Z,10.63
2018-03-28T10:01:48.710Z,9.13
2018-03-28T10:04:19.273Z,7.60
2018-03-28T10:06:49.635Z,12.87
2018-03-28T10:09:20.339Z,10.07
2018-03-28T10:11:50.615Z,9.57
2018-03-28T10:14:20.931Z,12.60
2018-03-28T10:16:51.221Z,9.90
2018-03-28T10:19:23.837Z,15.30
2018-03-28T10:21:54.082Z,10.27
2018-03-28T10:24:24.359Z,12.60
2018-03-28T10:26:54.682Z,11.67
2018-03-28T10:29:25.338Z,10.67
2018-03-28T10:31:55.673Z,11.03
2018-03-28T10:34:35.446Z,11.73
2018-03-28T10:37:05.897Z,11.53
2018-03-28T10:39:36.282Z,11.13
2018-03-28T10:42:06.689Z,9.43
2018-03-28T10:44:37.419Z,10.10
2018-03-28T10:47:07.949Z,10.73
2018-03-28T10:49:38.511Z,9.40
2018-03-28T10:52:08.947Z,8.37
2018-03-28T10:54:39.745Z,8.00
2018-03-28T10:57:10.115Z,7.77
2018-03-28T10:59:45.897Z,9.40
2018-03-28T11:02:16.185Z,6.50
2018-03-28T11:04:46.853Z,5.17
2018-03-28T11:07:17.144Z,5.73
2018-03-28T11:09:47.385Z,17.53
2018-03-28T11:12:17.736Z,6.10
2018-03-28T11:14:48.061Z,7.40
2018-03-28T11:17:18.480Z,6.77
2018-03-28T11:19:48.929Z,7.13
2018-03-28T11:22:19.694Z,7.63
2018-03-28T11:24:50.793Z,7.00
2018-03-28T11:27:21.155Z,5.73
2018-03-28T11:29:51.420Z,6.40
2018-03-28T11:32:21.623Z,9.17
2018-03-28T11:34:52.034Z,10.43
2018-03-28T11:37:22.297Z,8.60
2018-03-28T11:39:52.202Z,7.57
2018-03-28T11:42:22.230Z,8.20
2018-03-28T11:44:52.782Z,7.07
2018-03-28T11:47:23.074Z,9.90
2018-03-28T11:49:53.464Z,9.17
2018-03-28T11:52:23.895Z,9.27
2018-03-28T11:54:54.576Z,10.60
2018-03-28T11:57:27.834Z,13.97
2018-03-28T11:59:58.357Z,11.20
2018-03-28T12:02:28.864Z,11.37
2018-03-28T12:04:59.489Z,14.43
2018-03-28T12:07:30.009Z,11.73
2018-03-28T12:10:00.518Z,11.43
2018-03-28T12:12:30.958Z,9.33
2018-03-28T12:15:03.460Z,12.80
2018-03-28T12:17:33.933Z,9.17
2018-03-28T12:20:04.474Z,15.33
2018-03-28T12:22:34.957Z,11.80
2018-03-28T12:25:05.376Z,10.60
2018-03-28T12:27:35.813Z,13.27
2018-03-28T12:30:06.206Z,14.60
2018-03-28T12:32:36.309Z,7.67
2018-03-28T12:35:06.682Z,6.43
2018-03-28T12:37:37.086Z,8.13
2018-03-28T12:40:07.538Z,4.90
2018-03-28T12:42:37.796Z,7.20
2018-03-28T12:45:09.430Z,9.00
2018-03-28T12:47:39.769Z,6.33
2018-03-28T12:50:10.104Z,8.30
2018-03-28T12:52:41.554Z,5.27
2018-03-28T12:55:11.712Z,6.50
2018-03-28T12:57:42.051Z,5.67
2018-03-28T13:00:12.462Z,4.87
2018-03-28T13:02:43.996Z,7.53
2018-03-28T13:05:14.301Z,7.63
2018-03-28T13:07:44.621Z,7.77
2018-03-28T13:10:14.925Z,5.57
2018-03-28T13:12:45.222Z,6.87
2018-03-28T13:15:15.726Z,7.63
2018-03-28T13:17:46.235Z,10.87
2018-03-28T13:20:17.042Z,10.03
2018-03-28T13:22:47.513Z,11.50
2018-03-28T13:25:18.101Z,8.50
2018-03-28T13:27:48.544Z,9.53
2018-03-28T13:33:27.296Z,9.47
2018-03-28T13:36:00.911Z,11.27
2018-03-28T13:38:31.417Z,11.27
2018-03-28T13:41:01.480Z,7.50
2018-03-28T13:43:31.572Z,13.90
2018-03-28T13:46:01.979Z,16.10
2018-03-28T13:48:32.396Z,19.10
2018-03-28T13:51:02.875Z,18.33
2018-03-28T13:53:34.586Z,17.20
2018-03-28T13:56:04.963Z,21.53
2018-03-28T13:58:35.408Z,12.83
2018-03-28T14:01:05.903Z,13.30
2018-03-28T14:03:36.364Z,13.33
2018-03-28T14:06:08.879Z,10.17
2018-03-28T14:08:40.202Z,11.90
2018-03-28T14:11:10.651Z,12.60
2018-03-28T14:13:41.292Z,13.47
2018-03-28T14:16:11.674Z,16.83
2018-03-28T14:18:42.414Z,15.43
2018-03-28T14:21:16.724Z,14.43
2018-03-28T14:23:47.490Z,15.37
2018-03-28T14:26:17.999Z,26.50
2018-03-28T14:28:48.614Z,82.20
2018-03-28T14:31:19.261Z,26.40
2018-03-28T14:33:49.675Z,25.73
2018-03-28T14:36:20.134Z,14.07
2018-03-28T14:38:50.659Z,18.57
2018-03-28T14:41:21.023Z,32.20
2018-03-28T14:43:51.590Z,17.53
2018-03-28T14:46:21.944Z,12.83
2018-03-28T14:48:52.681Z,14.73
2018-03-28T14:51:25.227Z,11.30
2018-03-28T14:53:55.976Z,13.07
2018-03-28T14:56:26.453Z,14.73
2018-03-28T14:58:56.934Z,14.03
2018-03-28T15:01:27.456Z,17.57
2018-03-28T15:03:57.867Z,15.03
2018-03-28T15:06:28.404Z,14.90
2018-03-28T15:08:59.884Z,11.37
2018-03-28T15:11:30.263Z,16.77
2018-03-28T15:14:00.900Z,19.47
2018-03-28T15:16:31.223Z,15.53
2018-03-28T15:19:01.908Z,12.10
2018-03-28T15:21:32.317Z,13.77
2018-03-28T15:24:02.661Z,16.97
2018-03-28T15:26:32.959Z,14.40
2018-03-28T15:29:03.359Z,11.13
2018-03-28T15:31:33.786Z,14.80
2018-03-28T15:34:04.140Z,14.47
2018-03-28T15:36:34.568Z,14.30
2018-03-28T15:39:06.089Z,13.07
2018-03-28T15:41:38.683Z,14.20
2018-03-28T15:44:09.124Z,13.50
2018-03-28T15:46:39.518Z,15.13
2018-03-28T15:49:09.966Z,14.53
2018-03-28T15:51:40.329Z,14.47
2018-03-28T15:54:11.000Z,15.73
2018-03-28T15:56:43.169Z,12.30
2018-03-28T15:59:14.119Z,16.80
2018-03-28T16:01:44.543Z,16.97
2018-03-28T16:04:15.036Z,14.20
2018-03-28T16:06:45.964Z,14.10
2018-03-28T16:09:16.518Z,14.53
2018-03-28T16:11:47.109Z,13.77
2018-03-28T16:14:17.603Z,15.27
2018-03-28T16:16:48.099Z,17.37
2018-03-28T16:19:18.858Z,13.83
2018-03-28T16:21:49.339Z,16.30
2018-03-28T16:24:19.784Z,19.60
2018-03-28T16:26:51.928Z,14.00
2018-03-28T16:29:22.838Z,15.63
2018-03-28T16:31:53.288Z,18.40
2018-03-28T16:34:26.808Z,16.10
2018-03-28T16:36:57.528Z,18.20
2018-03-28T16:39:28.759Z,19.53
2018-03-28T16:41:59.233Z,16.10
2018-03-28T16:44:29.892Z,13.47
2018-03-28T16:47:00.329Z,18.60
2018-03-28T16:49:32.041Z,14.37
2018-03-28T16:52:02.436Z,17.33
2018-03-28T16:54:32.901Z,14.37
2018-03-28T16:57:03.306Z,15.83
2018-03-28T16:59:33.704Z,15.87
2018-03-28T17:02:04.298Z,18.67
2018-03-28T17:04:35.014Z,13.73
2018-03-28T17:07:05.495Z,14.47
2018-03-28T17:09:36.002Z,16.23
2018-03-28T17:12:08.580Z,15.53
2018-03-28T17:14:40.067Z,16.70
2018-03-28T17:17:10.722Z,15.63
2018-03-28T17:19:41.381Z,17.03
2018-03-28T17:22:11.957Z,15.17
2018-03-28T17:24:41.978Z,18.40
2018-03-28T17:27:12.606Z,21.47
2018-03-28T17:29:43.332Z,26.87
2018-03-28T17:32:14.354Z,20.50
2018-03-28T17:34:44.816Z,19.77
2018-03-28T17:37:15.281Z,19.13
2018-03-28T17:39:45.650Z,19.33
2018-03-28T17:42:16.182Z,18.90
2018-03-28T17:44:46.191Z,20.97
2018-03-28T17:47:16.775Z,20.10
2018-03-28T17:49:48.002Z,18.20
2018-03-28T17:52:19.371Z,19.53
2018-03-28T17:54:49.928Z,23.53
2018-03-28T17:57:20.564Z,23.10
2018-03-28T17:59:53.367Z,19.87
2018-03-28T18:02:26.260Z,17.93
2018-03-28T18:04:56.423Z,20.40
2018-03-28T18:07:26.866Z,15.37
2018-03-28T18:09:57.310Z,16.87
2018-03-28T18:12:27.992Z,19.83
2018-03-28T18:14:58.428Z,19.70
2018-03-28T18:17:29.333Z,18.40
2018-03-28T18:20:00.073Z,18.37
2018-03-28T18:22:30.535Z,25.27
2018-03-28T18:25:00.988Z,23.43
2018-03-28T18:27:32.385Z,20.93
2018-03-28T18:30:02.927Z,23.33
2018-03-28T18:32:33.313Z,18.40
2018-03-28T18:35:03.872Z,22.30
2018-03-28T18:37:40.425Z,28.90
2018-03-28T18:40:11.208Z,22.93
2018-03-28T18:42:41.853Z,21.83
2018-03-28T18:45:12.522Z,22.30
2018-03-28T18:47:44.416Z,45.30
2018-03-28T18:59:33.726Z,24.83
2018-03-28T19:02:04.669Z,27.90
2018-03-28T19:13:54.523Z,28.37
2018-03-28T19:16:25.058Z,27.13
2018-03-28T19:18:55.626Z,23.57
2018-03-28T19:21:26.413Z,34.87
2018-03-28T19:23:57.590Z,27.53
2018-03-28T19:26:28.074Z,30.47
2018-03-28T19:38:00.521Z,11.00
2018-03-28T19:40:48.982Z,1.87
2018-03-28T19:43:22.303Z,1.50
2018-03-28T19:45:53.114Z,0.80
2018-03-28T19:48:23.732Z,1.10
2018-03-28T19:53:30.997Z,1.10
2018-03-28T19:56:02.955Z,1.43
2018-03-28T19:58:33.725Z,0.60
2018-03-28T20:01:04.302Z,0.60
2018-03-28T20:03:34.825Z,0.40
2018-03-28T20:06:05.410Z,1.50
2018-03-28T20:08:36.173Z,1.07
2018-03-28T20:11:06.312Z,1.00
2018-03-28T20:13:36.466Z,1.43
2018-03-28T20:16:07.106Z,0.60
2018-03-28T20:18:39.326Z,1.00
2018-03-28T20:21:09.883Z,0.90
2018-03-28T20:23:40.406Z,1.13
2018-03-28T20:26:11.773Z,1.10
2018-03-28T20:28:42.317Z,3.23
2018-03-28T20:31:12.517Z,1.00
2018-03-28T20:33:43.136Z,1.00
2018-03-28T20:36:13.651Z,1.10
2018-03-28T20:38:44.462Z,1.83
2018-03-28T20:41:15.727Z,2.23
2018-03-28T20:43:46.336Z,1.27
2018-03-28T20:46:16.891Z,3.53
2018-03-28T20:48:47.325Z,1.00
2018-03-28T20:51:19.246Z,0.87
2018-03-28T20:53:49.712Z,1.13
2018-03-28T20:56:20.090Z,1.20
2018-03-28T20:58:50.646Z,1.40
2018-03-28T21:01:22.810Z,1.40
2018-03-28T21:03:53.428Z,1.27
2018-03-28T21:06:24.482Z,1.00
2018-03-28T21:08:55.974Z,1.40
2018-03-28T21:11:26.405Z,1.57
2018-03-28T21:13:57.406Z,2.47
2018-03-28T21:16:27.858Z,2.23
2018-03-28T21:18:58.424Z,1.93
2018-03-28T21:21:29.594Z,1.83
2018-03-28T21:24:00.073Z,2.40
2018-03-28T21:26:31.822Z,2.77
2018-03-28T21:29:02.241Z,2.40
2018-03-28T21:31:32.697Z,2.30
2018-03-28T21:34:03.176Z,2.73
2018-03-28T21:36:34.837Z,2.90
2018-03-28T21:39:06.719Z,2.50
2018-03-28T21:41:40.410Z,3.27
2018-03-28T21:44:12.507Z,2.93
2018-03-28T21:46:43.728Z,3.40
2018-03-28T21:49:14.266Z,3.00
2018-03-28T21:51:44.867Z,2.90
2018-03-28T21:54:14.900Z,3.63
2018-03-28T21:56:45.049Z,3.20
2018-03-28T21:59:15.703Z,2.70
2018-03-28T22:01:46.108Z,3.13
2018-03-28T22:04:17.517Z,3.10
2018-03-28T22:06:48.100Z,2.87
2018-03-28T22:09:18.944Z,3.17
2018-03-28T22:11:49.336Z,3.03
2018-03-28T22:14:20.303Z,2.80
2018-03-28T22:16:51.094Z,3.40
2018-03-28T22:19:21.271Z,2.70
2018-03-28T22:21:51.765Z,3.47
2018-03-28T22:24:22.484Z,3.43
2018-03-28T22:26:53.543Z,3.30
2018-03-28T22:29:25.487Z,3.03
2018-03-28T22:31:55.947Z,2.80
2018-03-28T22:34:26.567Z,2.67
2018-03-28T22:36:57.002Z,3.10
2018-03-28T22:39:28.052Z,3.03
2018-03-28T22:41:58.456Z,2.73
2018-03-28T22:44:29.558Z,2.80
2018-03-28T22:47:00.079Z,2.60
2018-03-28T22:49:31.790Z,2.73
2018-03-28T22:52:03.230Z,3.40
2018-03-28T22:54:33.710Z,3.33
2018-03-28T22:57:03.906Z,3.20
2018-03-28T22:59:34.628Z,3.30
2018-03-28T23:02:05.067Z,3.53
2018-03-28T23:04:35.811Z,3.20
2018-03-28T23:07:06.414Z,2.70
2018-03-28T23:09:37.095Z,3.03
2018-03-28T23:12:07.811Z,2.97
2018-03-28T23:14:38.525Z,3.07
2018-03-28T23:17:09.070Z,2.97
2018-03-28T23:19:39.277Z,3.90
2018-03-28T23:22:14.368Z,2.50
2018-03-28T23:24:46.217Z,3.27
2018-03-28T23:27:17.084Z,3.00
2018-03-28T23:29:48.049Z,2.63
2018-03-28T23:32:18.380Z,3.30
2018-03-28T23:34:50.438Z,4.33
2018-03-28T23:37:21.708Z,3.63
2018-03-28T23:39:52.632Z,3.17
2018-03-28T23:42:23.788Z,3.97
2018-03-28T23:44:55.952Z,3.47
2018-03-28T23:47:26.612Z,3.33
2018-03-28T23:49:57.484Z,3.37
2018-03-28T23:52:28.490Z,3.67
2018-03-28T23:54:59.248Z,3.77
2018-03-28T23:57:29.798Z,4.07
